sensor_id;sensor_type;location;lat;lon;timestamp;P1;durP1;ratioP1;P2;durP2;ratioP2
22064;SDS011;11197;53.110;8.468;2024-03-08T00:00:13;33.30;;;17.75;;
22064;SDS011;11197;53.110;8.468;2024-03-08T00:02:46;34.65;;;18.50;;
22064;SDS011;11197;53.110;8.468;2024-03-08T00:05:13;32.28;;;18.05;;
22064;SDS011;11197;53.110;8.468;2024-03-08T00:07:39;33.85;;;18.73;;
22064;SDS011;11197;53.110;8.468;2024-03-08T00:10:06;32.42;;;18.05;;
22064;SDS011;11197;53.110;8.468;2024-03-08T00:12:42;32.20;;;18.23;;
22064;SDS011;11197;53.110;8.468;2024-03-08T00:17:36;32.22;;;17.95;;
22064;SDS011;11197;53.110;8.468;2024-03-08T00:20:02;32.78;;;18.48;;
22064;SDS011;11197;53.110;8.468;2024-03-08T00:22:33;32.08;;;17.95;;
22064;SDS011;11197;53.110;8.468;2024-03-08T00:25:00;33.03;;;18.08;;
22064;SDS011;11197;53.110;8.468;2024-03-08T00:27:27;33.92;;;17.83;;
22064;SDS011;11197;53.110;8.468;2024-03-08T00:29:59;31.27;;;17.65;;
22064;SDS011;11197;53.110;8.468;2024-03-08T00:32:25;33.88;;;17.20;;
22064;SDS011;11197;53.110;8.468;2024-03-08T00:34:52;34.80;;;17.98;;
22064;SDS011;11197;53.110;8.468;2024-03-08T00:37:19;30.05;;;16.52;;
22064;SDS011;11197;53.110;8.468;2024-03-08T00:39:47;32.83;;;16.63;;
22064;SDS011;11197;53.110;8.468;2024-03-08T00:42:14;31.55;;;16.52;;
22064;SDS011;11197;53.110;8.468;2024-03-08T00:44:44;30.13;;;16.42;;
22064;SDS011;11197;53.110;8.468;2024-03-08T00:47:10;31.20;;;17.00;;
22064;SDS011;11197;53.110;8.468;2024-03-08T00:49:36;28.27;;;16.38;;
22064;SDS011;11197;53.110;8.468;2024-03-08T00:52:05;31.65;;;17.60;;
22064;SDS011;11197;53.110;8.468;2024-03-08T00:54:32;30.10;;;17.27;;
22064;SDS011;11197;53.110;8.468;2024-03-08T00:56:58;32.88;;;17.25;;
22064;SDS011;11197;53.110;8.468;2024-03-08T00:59:24;30.52;;;16.02;;
22064;SDS011;11197;53.110;8.468;2024-03-08T01:01:49;30.58;;;17.05;;
22064;SDS011;11197;53.110;8.468;2024-03-08T01:04:15;29.70;;;16.58;;
22064;SDS011;11197;53.110;8.468;2024-03-08T01:06:41;31.02;;;16.88;;
22064;SDS011;11197;53.110;8.468;2024-03-08T01:09:10;28.15;;;16.10;;
22064;SDS011;11197;53.110;8.468;2024-03-08T01:11:37;32.22;;;17.58;;
22064;SDS011;11197;53.110;8.468;2024-03-08T01:14:03;33.42;;;17.40;;
22064;SDS011;11197;53.110;8.468;2024-03-08T01:16:28;30.08;;;17.15;;
22064;SDS011;11197;53.110;8.468;2024-03-08T01:18:54;30.38;;;16.38;;
22064;SDS011;11197;53.110;8.468;2024-03-08T01:21:20;27.60;;;15.85;;
22064;SDS011;11197;53.110;8.468;2024-03-08T01:23:45;31.70;;;16.48;;
22064;SDS011;11197;53.110;8.468;2024-03-08T01:26:12;31.15;;;16.63;;
22064;SDS011;11197;53.110;8.468;2024-03-08T01:28:39;27.25;;;16.33;;
22064;SDS011;11197;53.110;8.468;2024-03-08T01:31:05;30.10;;;16.00;;
22064;SDS011;11197;53.110;8.468;2024-03-08T01:33:31;29.23;;;16.17;;
22064;SDS011;11197;53.110;8.468;2024-03-08T01:35:57;29.48;;;16.02;;
22064;SDS011;11197;53.110;8.468;2024-03-08T01:38:23;28.45;;;15.90;;
22064;SDS011;11197;53.110;8.468;2024-03-08T01:40:49;29.35;;;16.20;;
22064;SDS011;11197;53.110;8.468;2024-03-08T01:43:36;29.15;;;16.85;;
22064;SDS011;11197;53.110;8.468;2024-03-08T01:46:01;28.88;;;16.98;;
22064;SDS011;11197;53.110;8.468;2024-03-08T01:48:30;27.95;;;16.45;;
22064;SDS011;11197;53.110;8.468;2024-03-08T01:50:56;27.73;;;16.30;;
22064;SDS011;11197;53.110;8.468;2024-03-08T01:53:23;30.17;;;17.33;;
22064;SDS011;11197;53.110;8.468;2024-03-08T01:55:50;31.55;;;16.92;;
22064;SDS011;11197;53.110;8.468;2024-03-08T01:58:19;27.48;;;16.42;;
22064;SDS011;11197;53.110;8.468;2024-03-08T02:00:47;29.13;;;15.85;;
22064;SDS011;11197;53.110;8.468;2024-03-08T02:03:16;29.80;;;16.63;;
22064;SDS011;11197;53.110;8.468;2024-03-08T02:05:42;32.22;;;16.85;;
22064;SDS011;11197;53.110;8.468;2024-03-08T02:08:08;30.88;;;16.65;;
22064;SDS011;11197;53.110;8.468;2024-03-08T02:10:38;32.50;;;16.75;;
22064;SDS011;11197;53.110;8.468;2024-03-08T02:13:05;31.48;;;17.42;;
22064;SDS011;11197;53.110;8.468;2024-03-08T02:18:15;30.00;;;16.17;;
22064;SDS011;11197;53.110;8.468;2024-03-08T02:20:42;35.17;;;18.13;;
22064;SDS011;11197;53.110;8.468;2024-03-08T02:23:08;33.58;;;16.95;;
22064;SDS011;11197;53.110;8.468;2024-03-08T02:25:34;32.05;;;17.05;;
22064;SDS011;11197;53.110;8.468;2024-03-08T02:28:01;33.03;;;17.23;;
22064;SDS011;11197;53.110;8.468;2024-03-08T02:30:26;32.42;;;16.70;;
22064;SDS011;11197;53.110;8.468;2024-03-08T02:32:55;30.17;;;16.92;;
22064;SDS011;11197;53.110;8.468;2024-03-08T02:35:21;31.40;;;16.42;;
22064;SDS011;11197;53.110;8.468;2024-03-08T02:37:47;32.00;;;17.48;;
22064;SDS011;11197;53.110;8.468;2024-03-08T02:40:13;34.13;;;17.25;;
22064;SDS011;11197;53.110;8.468;2024-03-08T02:42:39;30.73;;;16.10;;
22064;SDS011;11197;53.110;8.468;2024-03-08T02:45:05;30.73;;;16.92;;
22064;SDS011;11197;53.110;8.468;2024-03-08T02:47:31;31.80;;;17.17;;
22064;SDS011;11197;53.110;8.468;2024-03-08T02:49:57;29.70;;;16.10;;
22064;SDS011;11197;53.110;8.468;2024-03-08T02:52:23;30.27;;;16.05;;
22064;SDS011;11197;53.110;8.468;2024-03-08T02:54:48;32.20;;;16.52;;
22064;SDS011;11197;53.110;8.468;2024-03-08T02:57:15;31.40;;;17.17;;
22064;SDS011;11197;53.110;8.468;2024-03-08T02:59:41;28.35;;;16.45;;
22064;SDS011;11197;53.110;8.468;2024-03-08T03:02:07;29.20;;;16.50;;
22064;SDS011;11197;53.110;8.468;2024-03-08T03:04:34;30.38;;;16.98;;
22064;SDS011;11197;53.110;8.468;2024-03-08T03:07:00;30.15;;;17.52;;
22064;SDS011;11197;53.110;8.468;2024-03-08T03:09:26;33.47;;;17.33;;
22064;SDS011;11197;53.110;8.468;2024-03-08T03:11:53;31.13;;;16.23;;
22064;SDS011;11197;53.110;8.468;2024-03-08T03:14:20;29.95;;;16.40;;
22064;SDS011;11197;53.110;8.468;2024-03-08T03:16:47;31.00;;;16.40;;
22064;SDS011;11197;53.110;8.468;2024-03-08T03:19:13;31.85;;;16.45;;
22064;SDS011;11197;53.110;8.468;2024-03-08T03:21:40;30.20;;;16.58;;
22064;SDS011;11197;53.110;8.468;2024-03-08T03:24:08;29.67;;;16.25;;
22064;SDS011;11197;53.110;8.468;2024-03-08T03:26:36;30.33;;;16.48;;
22064;SDS011;11197;53.110;8.468;2024-03-08T03:29:05;30.20;;;16.63;;
22064;SDS011;11197;53.110;8.468;2024-03-08T03:31:33;30.50;;;16.52;;
22064;SDS011;11197;53.110;8.468;2024-03-08T03:34:00;30.13;;;16.20;;
22064;SDS011;11197;53.110;8.468;2024-03-08T03:36:32;29.23;;;16.20;;
22064;SDS011;11197;53.110;8.468;2024-03-08T03:39:00;29.67;;;16.63;;
22064;SDS011;11197;53.110;8.468;2024-03-08T03:41:51;28.83;;;16.20;;
22064;SDS011;11197;53.110;8.468;2024-03-08T03:44:17;32.35;;;16.48;;
22064;SDS011;11197;53.110;8.468;2024-03-08T03:46:43;27.92;;;16.02;;
22064;SDS011;11197;53.110;8.468;2024-03-08T03:49:09;27.55;;;16.58;;
22064;SDS011;11197;53.110;8.468;2024-03-08T03:51:35;30.05;;;17.50;;
22064;SDS011;11197;53.110;8.468;2024-03-08T03:54:00;31.35;;;16.83;;
22064;SDS011;11197;53.110;8.468;2024-03-08T03:56:28;32.33;;;16.67;;
22064;SDS011;11197;53.110;8.468;2024-03-08T03:58:55;31.70;;;16.60;;
22064;SDS011;11197;53.110;8.468;2024-03-08T04:01:21;28.77;;;16.45;;
22064;SDS011;11197;53.110;8.468;2024-03-08T04:03:47;29.05;;;16.58;;
22064;SDS011;11197;53.110;8.468;2024-03-08T04:06:13;30.13;;;16.70;;
22064;SDS011;11197;53.110;8.468;2024-03-08T04:08:39;29.77;;;16.80;;
22064;SDS011;11197;53.110;8.468;2024-03-08T04:11:05;32.20;;;16.55;;
22064;SDS011;11197;53.110;8.468;2024-03-08T04:13:32;29.02;;;16.58;;
22064;SDS011;11197;53.110;8.468;2024-03-08T04:15:58;28.02;;;15.52;;
22064;SDS011;11197;53.110;8.468;2024-03-08T04:18:23;29.40;;;16.33;;
22064;SDS011;11197;53.110;8.468;2024-03-08T04:20:49;27.83;;;16.63;;
22064;SDS011;11197;53.110;8.468;2024-03-08T04:23:15;30.92;;;16.05;;
22064;SDS011;11197;53.110;8.468;2024-03-08T04:25:43;29.42;;;16.35;;
22064;SDS011;11197;53.110;8.468;2024-03-08T04:28:08;32.05;;;17.02;;
22064;SDS011;11197;53.110;8.468;2024-03-08T04:30:38;30.02;;;16.95;;
22064;SDS011;11197;53.110;8.468;2024-03-08T04:33:04;29.27;;;16.05;;
22064;SDS011;11197;53.110;8.468;2024-03-08T04:35:32;32.78;;;17.65;;
22064;SDS011;11197;53.110;8.468;2024-03-08T04:37:58;31.42;;;17.42;;
22064;SDS011;11197;53.110;8.468;2024-03-08T04:40:24;34.15;;;18.48;;
22064;SDS011;11197;53.110;8.468;2024-03-08T04:42:50;30.83;;;17.10;;
22064;SDS011;11197;53.110;8.468;2024-03-08T04:45:17;30.10;;;17.50;;
22064;SDS011;11197;53.110;8.468;2024-03-08T04:47:43;33.08;;;17.90;;
22064;SDS011;11197;53.110;8.468;2024-03-08T04:50:10;32.88;;;17.42;;
22064;SDS011;11197;53.110;8.468;2024-03-08T04:52:36;35.47;;;18.02;;
22064;SDS011;11197;53.110;8.468;2024-03-08T04:55:02;32.33;;;18.05;;
22064;SDS011;11197;53.110;8.468;2024-03-08T04:57:31;33.92;;;18.05;;
22064;SDS011;11197;53.110;8.468;2024-03-08T04:59:57;32.00;;;17.58;;
22064;SDS011;11197;53.110;8.468;2024-03-08T05:02:24;35.88;;;18.08;;
22064;SDS011;11197;53.110;8.468;2024-03-08T05:04:50;35.80;;;18.02;;
22064;SDS011;11197;53.110;8.468;2024-03-08T05:07:16;32.20;;;18.02;;
22064;SDS011;11197;53.110;8.468;2024-03-08T05:09:42;35.10;;;18.90;;
22064;SDS011;11197;53.110;8.468;2024-03-08T05:12:07;36.13;;;18.05;;
22064;SDS011;11197;53.110;8.468;2024-03-08T05:14:33;32.47;;;18.00;;
22064;SDS011;11197;53.110;8.468;2024-03-08T05:17:00;31.08;;;18.15;;
22064;SDS011;11197;53.110;8.468;2024-03-08T05:19:26;36.50;;;18.95;;
22064;SDS011;11197;53.110;8.468;2024-03-08T05:21:52;39.40;;;19.75;;
22064;SDS011;11197;53.110;8.468;2024-03-08T05:24:18;33.22;;;18.77;;
22064;SDS011;11197;53.110;8.468;2024-03-08T05:26:44;35.35;;;18.15;;
22064;SDS011;11197;53.110;8.468;2024-03-08T05:29:11;38.22;;;18.30;;
22064;SDS011;11197;53.110;8.468;2024-03-08T05:31:47;32.83;;;18.05;;
22064;SDS011;11197;53.110;8.468;2024-03-08T05:34:15;34.47;;;18.60;;
22064;SDS011;11197;53.110;8.468;2024-03-08T05:36:41;36.70;;;19.00;;
22064;SDS011;11197;53.110;8.468;2024-03-08T05:39:11;34.28;;;18.90;;
22064;SDS011;11197;53.110;8.468;2024-03-08T05:41:38;35.85;;;18.98;;
22064;SDS011;11197;53.110;8.468;2024-03-08T05:44:05;35.90;;;18.58;;
22064;SDS011;11197;53.110;8.468;2024-03-08T05:46:31;33.92;;;18.63;;
22064;SDS011;11197;53.110;8.468;2024-03-08T05:48:57;32.35;;;18.13;;
22064;SDS011;11197;53.110;8.468;2024-03-08T05:51:24;33.67;;;18.65;;
22064;SDS011;11197;53.110;8.468;2024-03-08T05:53:52;32.83;;;17.67;;
22064;SDS011;11197;53.110;8.468;2024-03-08T05:56:19;30.50;;;18.02;;
22064;SDS011;11197;53.110;8.468;2024-03-08T05:58:45;36.25;;;18.17;;
22064;SDS011;11197;53.110;8.468;2024-03-08T06:01:11;35.47;;;18.77;;
22064;SDS011;11197;53.110;8.468;2024-03-08T06:03:38;34.28;;;18.50;;
22064;SDS011;11197;53.110;8.468;2024-03-08T06:06:13;38.25;;;19.73;;
22064;SDS011;11197;53.110;8.468;2024-03-08T06:08:39;37.97;;;19.90;;
22064;SDS011;11197;53.110;8.468;2024-03-08T06:11:05;35.47;;;19.77;;
22064;SDS011;11197;53.110;8.468;2024-03-08T06:13:31;42.28;;;20.52;;
22064;SDS011;11197;53.110;8.468;2024-03-08T06:15:59;36.63;;;20.10;;
22064;SDS011;11197;53.110;8.468;2024-03-08T06:18:26;36.38;;;19.88;;
22064;SDS011;11197;53.110;8.468;2024-03-08T06:20:51;40.15;;;20.25;;
22064;SDS011;11197;53.110;8.468;2024-03-08T06:23:17;38.63;;;20.60;;
22064;SDS011;11197;53.110;8.468;2024-03-08T06:25:44;36.90;;;20.27;;
22064;SDS011;11197;53.110;8.468;2024-03-08T06:28:10;37.95;;;20.85;;
22064;SDS011;11197;53.110;8.468;2024-03-08T06:30:35;38.97;;;20.67;;
22064;SDS011;11197;53.110;8.468;2024-03-08T06:33:01;31.15;;;17.20;;
22064;SDS011;11197;53.110;8.468;2024-03-08T06:35:27;38.20;;;21.17;;
22064;SDS011;11197;53.110;8.468;2024-03-08T06:37:53;36.67;;;20.08;;
22064;SDS011;11197;53.110;8.468;2024-03-08T06:40:19;36.05;;;19.77;;
22064;SDS011;11197;53.110;8.468;2024-03-08T06:42:44;37.40;;;20.50;;
22064;SDS011;11197;53.110;8.468;2024-03-08T06:45:10;34.92;;;19.48;;
22064;SDS011;11197;53.110;8.468;2024-03-08T06:47:37;36.92;;;20.63;;
22064;SDS011;11197;53.110;8.468;2024-03-08T06:50:03;37.05;;;20.60;;
22064;SDS011;11197;53.110;8.468;2024-03-08T06:52:29;37.65;;;19.85;;
22064;SDS011;11197;53.110;8.468;2024-03-08T06:54:55;36.00;;;20.50;;
22064;SDS011;11197;53.110;8.468;2024-03-08T06:57:22;36.78;;;19.85;;
22064;SDS011;11197;53.110;8.468;2024-03-08T06:59:48;34.47;;;19.88;;
22064;SDS011;11197;53.110;8.468;2024-03-08T07:02:14;35.85;;;19.77;;
22064;SDS011;11197;53.110;8.468;2024-03-08T07:04:40;34.00;;;20.10;;
22064;SDS011;11197;53.110;8.468;2024-03-08T07:07:06;37.38;;;20.73;;
22064;SDS011;11197;53.110;8.468;2024-03-08T07:09:37;35.67;;;21.00;;
22064;SDS011;11197;53.110;8.468;2024-03-08T07:12:03;39.10;;;20.80;;
22064;SDS011;11197;53.110;8.468;2024-03-08T07:14:29;34.40;;;19.52;;
22064;SDS011;11197;53.110;8.468;2024-03-08T07:16:56;38.40;;;21.10;;
22064;SDS011;11197;53.110;8.468;2024-03-08T07:19:22;34.25;;;19.92;;
22064;SDS011;11197;53.110;8.468;2024-03-08T07:21:49;38.63;;;22.00;;
22064;SDS011;11197;53.110;8.468;2024-03-08T07:24:14;37.05;;;20.23;;
22064;SDS011;11197;53.110;8.468;2024-03-08T07:26:57;35.80;;;20.80;;
22064;SDS011;11197;53.110;8.468;2024-03-08T07:29:24;36.30;;;21.50;;
22064;SDS011;11197;53.110;8.468;2024-03-08T07:31:50;38.00;;;21.10;;
22064;SDS011;11197;53.110;8.468;2024-03-08T07:34:21;38.15;;;20.92;;
22064;SDS011;11197;53.110;8.468;2024-03-08T07:36:48;34.63;;;19.77;;
22064;SDS011;11197;53.110;8.468;2024-03-08T07:39:15;37.45;;;20.42;;
22064;SDS011;11197;53.110;8.468;2024-03-08T07:41:41;34.30;;;20.80;;
22064;SDS011;11197;53.110;8.468;2024-03-08T07:44:07;36.72;;;20.58;;
22064;SDS011;11197;53.110;8.468;2024-03-08T07:46:33;36.45;;;20.05;;
22064;SDS011;11197;53.110;8.468;2024-03-08T07:49:02;38.50;;;21.00;;
22064;SDS011;11197;53.110;8.468;2024-03-08T07:51:28;37.40;;;20.48;;
22064;SDS011;11197;53.110;8.468;2024-03-08T07:53:54;29.50;;;15.23;;
22064;SDS011;11197;53.110;8.468;2024-03-08T07:56:22;34.88;;;19.67;;
22064;SDS011;11197;53.110;8.468;2024-03-08T07:58:49;34.35;;;19.92;;
22064;SDS011;11197;53.110;8.468;2024-03-08T08:01:17;31.08;;;19.17;;
22064;SDS011;11197;53.110;8.468;2024-03-08T08:03:43;35.92;;;20.50;;
22064;SDS011;11197;53.110;8.468;2024-03-08T08:06:10;35.58;;;20.15;;
22064;SDS011;11197;53.110;8.468;2024-03-08T08:08:43;31.27;;;19.42;;
22064;SDS011;11197;53.110;8.468;2024-03-08T08:11:10;32.20;;;19.70;;
22064;SDS011;11197;53.110;8.468;2024-03-08T08:16:08;35.70;;;19.73;;
22064;SDS011;11197;53.110;8.468;2024-03-08T08:18:35;35.47;;;20.50;;
22064;SDS011;11197;53.110;8.468;2024-03-08T08:21:05;35.50;;;20.05;;
22064;SDS011;11197;53.110;8.468;2024-03-08T08:23:33;38.90;;;20.92;;
22064;SDS011;11197;53.110;8.468;2024-03-08T08:25:59;33.67;;;20.00;;
22064;SDS011;11197;53.110;8.468;2024-03-08T08:28:26;35.55;;;20.38;;
22064;SDS011;11197;53.110;8.468;2024-03-08T08:30:52;34.03;;;20.10;;
22064;SDS011;11197;53.110;8.468;2024-03-08T08:33:19;35.70;;;20.40;;
22064;SDS011;11197;53.110;8.468;2024-03-08T08:35:44;34.08;;;19.00;;
22064;SDS011;11197;53.110;8.468;2024-03-08T08:38:12;32.35;;;18.90;;
22064;SDS011;11197;53.110;8.468;2024-03-08T08:40:38;32.00;;;19.85;;
22064;SDS011;11197;53.110;8.468;2024-03-08T08:43:04;32.95;;;20.00;;
22064;SDS011;11197;53.110;8.468;2024-03-08T08:45:30;35.33;;;19.83;;
22064;SDS011;11197;53.110;8.468;2024-03-08T08:47:56;33.92;;;19.25;;
22064;SDS011;11197;53.110;8.468;2024-03-08T08:50:25;34.78;;;20.05;;
22064;SDS011;11197;53.110;8.468;2024-03-08T08:52:52;32.40;;;19.48;;
22064;SDS011;11197;53.110;8.468;2024-03-08T08:55:18;34.85;;;19.70;;
22064;SDS011;11197;53.110;8.468;2024-03-08T08:57:46;32.42;;;19.63;;
22064;SDS011;11197;53.110;8.468;2024-03-08T09:00:17;33.58;;;19.75;;
22064;SDS011;11197;53.110;8.468;2024-03-08T09:02:47;32.75;;;19.25;;
22064;SDS011;11197;53.110;8.468;2024-03-08T09:05:16;32.20;;;19.15;;
22064;SDS011;11197;53.110;8.468;2024-03-08T09:07:45;32.50;;;18.60;;
22064;SDS011;11197;53.110;8.468;2024-03-08T09:10:10;33.15;;;19.77;;
22064;SDS011;11197;53.110;8.468;2024-03-08T09:12:40;33.20;;;19.75;;
22064;SDS011;11197;53.110;8.468;2024-03-08T09:15:06;34.85;;;19.80;;
22064;SDS011;11197;53.110;8.468;2024-03-08T09:17:42;31.90;;;19.08;;
22064;SDS011;11197;53.110;8.468;2024-03-08T09:20:09;33.58;;;18.48;;
22064;SDS011;11197;53.110;8.468;2024-03-08T09:22:39;32.85;;;19.90;;
22064;SDS011;11197;53.110;8.468;2024-03-08T09:25:06;33.75;;;20.08;;
22064;SDS011;11197;53.110;8.468;2024-03-08T09:27:32;34.22;;;19.02;;
22064;SDS011;11197;53.110;8.468;2024-03-08T09:29:59;34.63;;;19.75;;
22064;SDS011;11197;53.110;8.468;2024-03-08T09:32:25;34.33;;;20.08;;
22064;SDS011;11197;53.110;8.468;2024-03-08T09:34:51;30.60;;;19.20;;
22064;SDS011;11197;53.110;8.468;2024-03-08T09:37:17;34.33;;;20.20;;
22064;SDS011;11197;53.110;8.468;2024-03-08T09:39:44;32.50;;;19.48;;
22064;SDS011;11197;53.110;8.468;2024-03-08T09:42:10;34.25;;;20.27;;
22064;SDS011;11197;53.110;8.468;2024-03-08T09:44:41;33.28;;;20.20;;
22064;SDS011;11197;53.110;8.468;2024-03-08T09:47:15;30.63;;;18.38;;
22064;SDS011;11197;53.110;8.468;2024-03-08T09:49:41;19.80;;;11.82;;
22064;SDS011;11197;53.110;8.468;2024-03-08T09:52:08;22.17;;;12.95;;
22064;SDS011;11197;53.110;8.468;2024-03-08T09:54:35;27.83;;;17.75;;
22064;SDS011;11197;53.110;8.468;2024-03-08T09:57:03;34.05;;;18.80;;
22064;SDS011;11197;53.110;8.468;2024-03-08T09:59:29;39.22;;;17.52;;
22064;SDS011;11197;53.110;8.468;2024-03-08T10:02:01;24.45;;;13.75;;
22064;SDS011;11197;53.110;8.468;2024-03-08T10:04:30;24.55;;;14.45;;
22064;SDS011;11197;53.110;8.468;2024-03-08T10:07:00;24.85;;;13.75;;
22064;SDS011;11197;53.110;8.468;2024-03-08T10:09:26;26.50;;;17.15;;
22064;SDS011;11197;53.110;8.468;2024-03-08T10:11:56;22.17;;;14.38;;
22064;SDS011;11197;53.110;8.468;2024-03-08T10:14:23;25.60;;;14.77;;
22064;SDS011;11197;53.110;8.468;2024-03-08T10:16:52;30.83;;;18.70;;
22064;SDS011;11197;53.110;8.468;2024-03-08T10:19:19;30.90;;;20.25;;
22064;SDS011;11197;53.110;8.468;2024-03-08T10:21:51;27.77;;;19.00;;
22064;SDS011;11197;53.110;8.468;2024-03-08T10:24:22;25.90;;;18.55;;
22064;SDS011;11197;53.110;8.468;2024-03-08T10:26:52;27.75;;;19.95;;
22064;SDS011;11197;53.110;8.468;2024-03-08T10:29:19;30.17;;;19.25;;
22064;SDS011;11197;53.110;8.468;2024-03-08T10:31:45;31.40;;;19.98;;
22064;SDS011;11197;53.110;8.468;2024-03-08T10:34:11;31.08;;;20.35;;
22064;SDS011;11197;53.110;8.468;2024-03-08T10:36:36;27.73;;;18.70;;
22064;SDS011;11197;53.110;8.468;2024-03-08T10:39:05;30.30;;;19.90;;
22064;SDS011;11197;53.110;8.468;2024-03-08T10:41:43;32.38;;;20.42;;
22064;SDS011;11197;53.110;8.468;2024-03-08T10:49:31;30.05;;;20.67;;
22064;SDS011;11197;53.110;8.468;2024-03-08T10:52:01;32.00;;;20.75;;
22064;SDS011;11197;53.110;8.468;2024-03-08T10:54:30;32.58;;;21.05;;
22064;SDS011;11197;53.110;8.468;2024-03-08T10:56:58;31.92;;;20.67;;
22064;SDS011;11197;53.110;8.468;2024-03-08T10:59:26;32.08;;;19.58;;
22064;SDS011;11197;53.110;8.468;2024-03-08T11:01:53;31.55;;;20.10;;
22064;SDS011;11197;53.110;8.468;2024-03-08T11:04:19;32.53;;;20.95;;
22064;SDS011;11197;53.110;8.468;2024-03-08T11:06:48;33.45;;;20.60;;
22064;SDS011;11197;53.110;8.468;2024-03-08T11:14:51;34.58;;;19.92;;
22064;SDS011;11197;53.110;8.468;2024-03-08T11:19:56;31.63;;;19.52;;
22064;SDS011;11197;53.110;8.468;2024-03-08T11:22:31;32.63;;;20.13;;
22064;SDS011;11197;53.110;8.468;2024-03-08T11:25:08;32.58;;;20.10;;
22064;SDS011;11197;53.110;8.468;2024-03-08T11:27:37;30.38;;;19.73;;
22064;SDS011;11197;53.110;8.468;2024-03-08T11:30:04;30.88;;;20.83;;
22064;SDS011;11197;53.110;8.468;2024-03-08T11:32:46;32.08;;;20.75;;
22064;SDS011;11197;53.110;8.468;2024-03-08T11:35:19;30.38;;;19.90;;
22064;SDS011;11197;53.110;8.468;2024-03-08T11:37:46;31.95;;;19.88;;
22064;SDS011;11197;53.110;8.468;2024-03-08T11:40:13;32.15;;;20.52;;
22064;SDS011;11197;53.110;8.468;2024-03-08T11:42:44;30.10;;;19.90;;
22064;SDS011;11197;53.110;8.468;2024-03-08T11:45:12;30.08;;;19.75;;
22064;SDS011;11197;53.110;8.468;2024-03-08T11:47:45;28.85;;;18.90;;
22064;SDS011;11197;53.110;8.468;2024-03-08T11:50:14;30.67;;;19.27;;
22064;SDS011;11197;53.110;8.468;2024-03-08T11:52:40;31.77;;;19.90;;
22064;SDS011;11197;53.110;8.468;2024-03-08T11:55:08;35.97;;;20.75;;
22064;SDS011;11197;53.110;8.468;2024-03-08T11:57:34;31.33;;;19.70;;
22064;SDS011;11197;53.110;8.468;2024-03-08T12:00:01;29.95;;;19.58;;
22064;SDS011;11197;53.110;8.468;2024-03-08T12:02:33;29.90;;;18.85;;
22064;SDS011;11197;53.110;8.468;2024-03-08T12:05:03;31.50;;;19.85;;
22064;SDS011;11197;53.110;8.468;2024-03-08T12:07:31;29.13;;;18.85;;
22064;SDS011;11197;53.110;8.468;2024-03-08T12:10:21;30.27;;;19.17;;
22064;SDS011;11197;53.110;8.468;2024-03-08T12:12:48;27.98;;;17.98;;
22064;SDS011;11197;53.110;8.468;2024-03-08T12:15:17;29.13;;;18.50;;
22064;SDS011;11197;53.110;8.468;2024-03-08T12:17:44;29.13;;;18.80;;
22064;SDS011;11197;53.110;8.468;2024-03-08T12:20:25;28.70;;;18.92;;
22064;SDS011;11197;53.110;8.468;2024-03-08T12:22:55;28.83;;;18.40;;
22064;SDS011;11197;53.110;8.468;2024-03-08T12:25:22;26.45;;;18.55;;
22064;SDS011;11197;53.110;8.468;2024-03-08T12:27:51;28.95;;;17.83;;
22064;SDS011;11197;53.110;8.468;2024-03-08T12:30:19;28.83;;;18.48;;
22064;SDS011;11197;53.110;8.468;2024-03-08T12:32:52;25.90;;;18.27;;
22064;SDS011;11197;53.110;8.468;2024-03-08T12:35:22;28.20;;;17.93;;
22064;SDS011;11197;53.110;8.468;2024-03-08T12:37:53;27.20;;;17.27;;
22064;SDS011;11197;53.110;8.468;2024-03-08T12:40:27;26.33;;;16.83;;
22064;SDS011;11197;53.110;8.468;2024-03-08T12:42:54;27.38;;;17.35;;
22064;SDS011;11197;53.110;8.468;2024-03-08T12:45:21;26.65;;;17.15;;
22064;SDS011;11197;53.110;8.468;2024-03-08T12:47:49;24.80;;;16.23;;
22064;SDS011;11197;53.110;8.468;2024-03-08T12:50:16;25.27;;;16.90;;
22064;SDS011;11197;53.110;8.468;2024-03-08T12:52:43;25.90;;;16.98;;
22064;SDS011;11197;53.110;8.468;2024-03-08T12:55:09;25.20;;;16.60;;
22064;SDS011;11197;53.110;8.468;2024-03-08T12:57:35;27.42;;;17.25;;
22064;SDS011;11197;53.110;8.468;2024-03-08T13:00:03;26.00;;;16.45;;
22064;SDS011;11197;53.110;8.468;2024-03-08T13:02:29;29.80;;;17.75;;
22064;SDS011;11197;53.110;8.468;2024-03-08T13:04:57;26.98;;;16.83;;
22064;SDS011;11197;53.110;8.468;2024-03-08T13:07:23;27.55;;;17.63;;
22064;SDS011;11197;53.110;8.468;2024-03-08T13:09:54;24.85;;;16.50;;
22064;SDS011;11197;53.110;8.468;2024-03-08T13:12:20;27.15;;;17.27;;
22064;SDS011;11197;53.110;8.468;2024-03-08T13:14:47;26.65;;;16.85;;
22064;SDS011;11197;53.110;8.468;2024-03-08T13:17:13;25.38;;;16.77;;
22064;SDS011;11197;53.110;8.468;2024-03-08T13:19:40;32.08;;;17.52;;
22064;SDS011;11197;53.110;8.468;2024-03-08T13:22:07;39.90;;;19.08;;
22064;SDS011;11197;53.110;8.468;2024-03-08T13:24:37;33.80;;;18.13;;
22064;SDS011;11197;53.110;8.468;2024-03-08T13:27:03;29.40;;;17.92;;
22064;SDS011;11197;53.110;8.468;2024-03-08T13:29:41;24.48;;;16.52;;
22064;SDS011;11197;53.110;8.468;2024-03-08T13:32:08;25.52;;;17.10;;
22064;SDS011;11197;53.110;8.468;2024-03-08T13:34:37;27.38;;;17.67;;
22064;SDS011;11197;53.110;8.468;2024-03-08T13:37:06;27.08;;;18.17;;
22064;SDS011;11197;53.110;8.468;2024-03-08T13:39:31;27.63;;;17.60;;
22064;SDS011;11197;53.110;8.468;2024-03-08T13:44:44;27.92;;;18.55;;
22064;SDS011;11197;53.110;8.468;2024-03-08T13:47:12;26.17;;;18.13;;
22064;SDS011;11197;53.110;8.468;2024-03-08T13:49:42;30.58;;;18.27;;
22064;SDS011;11197;53.110;8.468;2024-03-08T13:52:09;28.10;;;18.20;;
22064;SDS011;11197;53.110;8.468;2024-03-08T13:54:40;29.15;;;18.58;;
22064;SDS011;11197;53.110;8.468;2024-03-08T13:57:06;27.08;;;18.88;;
22064;SDS011;11197;53.110;8.468;2024-03-08T13:59:32;26.85;;;18.50;;
22064;SDS011;11197;53.110;8.468;2024-03-08T14:02:00;28.08;;;18.92;;
22064;SDS011;11197;53.110;8.468;2024-03-08T14:04:30;26.83;;;18.90;;
22064;SDS011;11197;53.110;8.468;2024-03-08T14:06:56;27.33;;;17.95;;
22064;SDS011;11197;53.110;8.468;2024-03-08T14:09:26;26.65;;;18.15;;
22064;SDS011;11197;53.110;8.468;2024-03-08T14:11:54;30.73;;;18.45;;
22064;SDS011;11197;53.110;8.468;2024-03-08T14:14:23;27.10;;;18.77;;
22064;SDS011;11197;53.110;8.468;2024-03-08T14:16:49;30.45;;;18.85;;
22064;SDS011;11197;53.110;8.468;2024-03-08T14:19:20;29.00;;;18.38;;
22064;SDS011;11197;53.110;8.468;2024-03-08T14:21:46;26.77;;;18.15;;
22064;SDS011;11197;53.110;8.468;2024-03-08T14:24:18;26.30;;;17.88;;
22064;SDS011;11197;53.110;8.468;2024-03-08T14:26:44;26.98;;;17.48;;
22064;SDS011;11197;53.110;8.468;2024-03-08T14:29:11;26.27;;;18.42;;
22064;SDS011;11197;53.110;8.468;2024-03-08T14:31:37;28.83;;;17.73;;
22064;SDS011;11197;53.110;8.468;2024-03-08T14:34:03;26.83;;;16.92;;
22064;SDS011;11197;53.110;8.468;2024-03-08T14:36:29;27.27;;;17.25;;
22064;SDS011;11197;53.110;8.468;2024-03-08T14:38:55;24.60;;;17.30;;
22064;SDS011;11197;53.110;8.468;2024-03-08T14:41:21;26.48;;;17.95;;
22064;SDS011;11197;53.110;8.468;2024-03-08T14:43:50;26.17;;;17.30;;
22064;SDS011;11197;53.110;8.468;2024-03-08T14:46:18;24.15;;;16.55;;